Time;durP1;ratioP1;P1;durP2;ratioP2;P2;SDS_P1;SDS_P2;PMS_P1;PMS_P2;Temp;Humidity;BMP_temperature;BMP_pressure;BME280_temperature;BME280_humidity;BME280_pressure;Samples;Min_cycle;Max_cycle;Signal;HPM_P1;HPM_P2
2021/03/31 00:00:21;;;;;;;42.35;24.80;;;10.70;99.90;;;;;;4781161;29;20097;-83
2021/03/31 00:02:50;;;;;;;38.38;22.75;;;10.60;99.90;;;;;;4795517;29;20062;-83
2021/03/31 00:05:17;;;;;;;36.38;21.67;;;10.60;99.90;;;;;;4780635;29;20066;-82
2021/03/31 00:07:43;;;;;;;38.22;24.63;;;10.50;99.90;;;;;;4780586;29;20155;-83
2021/03/31 00:10:24;;;;;;;39.85;23.52;;;10.60;99.90;;;;;;4780239;29;20518;-83
2021/03/31 00:12:51;;;;;;;34.28;21.15;;;10.50;99.90;;;;;;4795068;29;20058;-83
2021/03/31 00:15:18;;;;;;;37.88;22.77;;;10.50;99.90;;;;;;4780429;29;20456;-83
2021/03/31 00:17:44;;;;;;;38.22;24.08;;;10.40;99.90;;;;;;4809982;29;20061;-83
2021/03/31 00:20:13;;;;;;;39.08;22.73;;;10.40;99.90;;;;;;4795044;29;20131;-83
2021/03/31 00:22:39;;;;;;;39.75;20.52;;;10.30;99.90;;;;;;4795273;29;20077;-82
2021/03/31 00:25:07;;;;;;;26.08;17.60;;;10.30;99.90;;;;;;4794862;29;20054;-83
2021/03/31 00:27:33;;;;;;;44.50;24.40;;;10.30;99.90;;;;;;4780023;29;20542;-83
2021/03/31 00:30:00;;;;;;;47.95;27.38;;;10.20;99.90;;;;;;4795200;29;20550;-82
2021/03/31 00:32:27;;;;;;;42.05;25.10;;;10.20;99.90;;;;;;4794411;29;20068;-82
2021/03/31 00:34:54;;;;;;;39.03;24.58;;;10.10;99.90;;;;;;4794624;29;20149;-83
2021/03/31 00:37:21;;;;;;;36.03;21.67;;;10.00;99.90;;;;;;4795085;29;20146;-82
2021/03/31 00:39:47;;;;;;;35.90;22.27;;;9.90;99.90;;;;;;4793333;29;20157;-83
2021/03/31 00:42:14;;;;;;;42.80;26.80;;;9.90;99.90;;;;;;4794627;29;20070;-83
2021/03/31 00:44:40;;;;;;;44.10;23.45;;;9.80;99.90;;;;;;4780054;29;20057;-82
2021/03/31 00:47:08;;;;;;;34.33;21.02;;;9.70;99.90;;;;;;4779637;29;20073;-83
2021/03/31 00:49:35;;;;;;;36.20;21.98;;;9.80;99.90;;;;;;4794875;29;20050;-82
2021/03/31 00:52:02;;;;;;;43.30;23.83;;;9.80;99.90;;;;;;4779812;29;20062;-82
2021/03/31 00:54:29;;;;;;;40.30;22.60;;;9.80;99.90;;;;;;4794147;29;20627;-82
2021/03/31 00:56:56;;;;;;;29.63;18.85;;;9.70;99.90;;;;;;4794499;29;20074;-83
2021/03/31 00:59:22;;;;;;;41.13;21.55;;;9.70;99.90;;;;;;4794420;29;20464;-82
2021/03/31 01:01:49;;;;;;;40.78;22.90;;;9.70;99.90;;;;;;4809234;29;20074;-83
2021/03/31 01:04:16;;;;;;;46.17;26.60;;;9.70;99.90;;;;;;4794390;29;20543;-83
2021/03/31 01:06:42;;;;;;;39.95;25.10;;;9.70;99.90;;;;;;4809547;29;20415;-83
2021/03/31 01:09:09;;;;;;;40.28;23.17;;;9.70;99.90;;;;;;4794110;29;20055;-82
2021/03/31 01:11:41;;;;;;;43.25;24.73;;;9.70;99.90;;;;;;4794376;29;20459;-82
2021/03/31 01:14:16;;;;;;;44.20;25.73;;;9.70;99.90;;;;;;4809279;29;20165;-83
2021/03/31 01:16:49;;;;;;;54.55;27.63;;;9.70;99.90;;;;;;4809409;29;20050;-82
2021/03/31 01:19:29;;;;;;;43.92;25.75;;;9.60;99.90;;;;;;4809000;29;20054;-83
2021/03/31 01:22:21;;;;;;;49.60;26.85;;;9.50;99.90;;;;;;4811560;29;20058;-83
2021/03/31 01:25:12;;;;;;;38.42;21.27;;;9.50;99.90;;;;;;4827316;29;20136;-82
2021/03/31 01:28:07;;;;;;;41.78;24.00;;;9.40;99.90;;;;;;4826238;29;20098;-82
2021/03/31 01:30:39;;;;;;;41.42;24.40;;;9.40;99.90;;;;;;4794423;29;20077;-82
2021/03/31 01:33:30;;;;;;;40.58;25.55;;;9.40;99.90;;;;;;4809076;29;20111;-82
2021/03/31 01:35:57;;;;;;;43.42;23.10;;;9.40;99.90;;;;;;4823472;29;20508;-82
2021/03/31 01:38:25;;;;;;;37.35;23.55;;;9.30;99.90;;;;;;4827051;29;20493;-82
2021/03/31 01:40:52;;;;;;;50.63;28.23;;;9.30;99.90;;;;;;4827069;29;20153;-82
2021/03/31 01:43:20;;;;;;;39.40;24.45;;;9.30;99.90;;;;;;4783557;29;20054;-83
2021/03/31 01:45:49;;;;;;;36.78;21.98;;;9.30;99.90;;;;;;4809020;29;20058;-82
2021/03/31 01:48:17;;;;;;;37.28;22.55;;;9.30;99.90;;;;;;4808457;29;20058;-81
2021/03/31 01:50:47;;;;;;;44.67;24.77;;;9.30;99.90;;;;;;4808952;29;20052;-82
2021/03/31 01:53:13;;;;;;;40.75;23.67;;;9.20;99.90;;;;;;4808823;29;20131;-82
2021/03/31 01:55:40;;;;;;;47.00;26.63;;;9.20;99.90;;;;;;4808666;29;20058;-83
2021/03/31 01:58:07;;;;;;;35.63;23.10;;;9.20;99.90;;;;;;4808731;29;20087;-82
2021/03/31 02:00:33;;;;;;;43.25;25.70;;;9.20;99.90;;;;;;4793804;29;20062;-82
2021/03/31 02:03:00;;;;;;;41.08;26.35;;;9.10;99.90;;;;;;4793672;29;20087;-82
2021/03/31 02:05:27;;;;;;;42.63;24.85;;;9.00;99.90;;;;;;4793773;29;20153;-82
2021/03/31 02:07:58;;;;;;;35.15;21.88;;;9.00;99.90;;;;;;4808207;29;20090;-82
2021/03/31 02:10:24;;;;;;;35.15;21.98;;;8.90;99.90;;;;;;4793932;29;20061;-83
2021/03/31 02:12:51;;;;;;;37.47;22.45;;;8.90;99.90;;;;;;4793578;29;20135;-82
2021/03/31 02:15:19;;;;;;;44.30;26.45;;;8.90;99.90;;;;;;4793480;29;20058;-82
2021/03/31 02:17:46;;;;;;;37.67;24.27;;;8.90;99.90;;;;;;4793825;29;20051;-82
2021/03/31 02:20:15;;;;;;;39.25;24.45;;;8.80;99.90;;;;;;4793831;29;20078;-82
2021/03/31 02:22:41;;;;;;;46.42;24.15;;;8.80;99.90;;;;;;4793583;29;20038;-82
2021/03/31 02:25:09;;;;;;;31.65;19.75;;;8.80;99.90;;;;;;4793914;29;20043;-82
2021/03/31 02:27:37;;;;;;;42.28;25.55;;;8.70;99.90;;;;;;4793251;29;20054;-82
2021/03/31 02:30:08;;;;;;;43.95;27.77;;;8.70;99.90;;;;;;4801017;29;20110;-82
2021/03/31 02:32:35;;;;;;;43.72;25.58;;;8.70;99.90;;;;;;4825413;29;20061;-82
2021/03/31 02:35:03;;;;;;;42.10;26.15;;;8.60;99.90;;;;;;4793104;29;20057;-82
2021/03/31 02:37:29;;;;;;;39.47;23.58;;;8.60;99.90;;;;;;4793465;29;20054;-82
2021/03/31 02:39:56;;;;;;;49.25;28.40;;;8.60;99.90;;;;;;4797536;29;20080;-82
2021/03/31 02:42:24;;;;;;;49.70;30.02;;;8.60;99.90;;;;;;4796437;29;20080;-82
2021/03/31 02:44:52;;;;;;;51.50;29.25;;;8.50;99.90;;;;;;4801038;29;20165;-82
2021/03/31 02:47:22;;;;;;;46.00;26.42;;;8.50;99.90;;;;;;4778238;29;20051;-82
2021/03/31 02:49:49;;;;;;;42.17;26.20;;;8.40;99.90;;;;;;4778570;29;20111;-82
2021/03/31 02:52:16;;;;;;;43.65;25.88;;;8.40;99.90;;;;;;4778156;29;20065;-82
2021/03/31 02:54:43;;;;;;;41.25;25.27;;;8.40;99.90;;;;;;4777853;29;20093;-82
2021/03/31 02:57:10;;;;;;;36.30;22.67;;;8.30;99.90;;;;;;4793144;29;20062;-82
2021/03/31 02:59:40;;;;;;;41.40;22.40;;;8.40;99.90;;;;;;4778045;29;20104;-82
2021/03/31 03:02:09;;;;;;;34.92;21.27;;;8.30;99.90;;;;;;4760899;29;20086;-82
2021/03/31 03:04:36;;;;;;;36.08;20.27;;;8.30;99.90;;;;;;4789735;29;20108;-82
2021/03/31 03:07:05;;;;;;;42.30;24.63;;;8.30;99.90;;;;;;4790021;29;20055;-82
2021/03/31 03:09:32;;;;;;;52.75;28.17;;;8.30;99.90;;;;;;4789900;29;20054;-82
2021/03/31 03:11:58;;;;;;;50.17;27.88;;;8.30;99.90;;;;;;4791908;29;20054;-82
2021/03/31 03:14:29;;;;;;;50.03;29.83;;;8.30;99.90;;;;;;4779187;29;20127;-82
2021/03/31 03:16:55;;;;;;;55.25;30.70;;;8.30;99.90;;;;;;4792968;29;20103;-82
2021/03/31 03:19:22;;;;;;;57.00;30.10;;;8.20;99.90;;;;;;4795673;29;20050;-82
2021/03/31 03:21:49;;;;;;;49.05;27.13;;;8.20;99.90;;;;;;4811376;29;20054;-82
2021/03/31 03:24:15;;;;;;;53.95;27.13;;;8.10;99.90;;;;;;4796156;29;20100;-82
2021/03/31 03:26:42;;;;;;;50.42;26.20;;;8.10;99.90;;;;;;4813194;29;20110;-82
2021/03/31 03:29:08;;;;;;;44.03;25.73;;;8.10;99.90;;;;;;4829084;29;20052;-82
2021/03/31 03:31:36;;;;;;;52.75;30.15;;;8.10;99.90;;;;;;4814898;29;20054;-82
2021/03/31 03:34:07;;;;;;;58.90;29.67;;;8.10;99.90;;;;;;4796033;29;20061;-82
2021/03/31 03:36:35;;;;;;;64.65;35.30;;;8.10;99.90;;;;;;4810781;29;20058;-82
2021/03/31 03:39:03;;;;;;;81.03;38.78;;;8.00;99.90;;;;;;4795597;29;20200;-81
2021/03/31 03:41:30;;;;;;;73.20;37.58;;;8.00;99.90;;;;;;4810588;29;20096;-82
2021/03/31 03:43:57;;;;;;;61.85;32.42;;;8.00;99.90;;;;;;4781186;29;20441;-84
2021/03/31 03:46:23;;;;;;;68.90;36.05;;;7.90;99.90;;;;;;4795539;29;20059;-82
2021/03/31 03:48:50;;;;;;;76.75;39.80;;;7.90;99.90;;;;;;4781041;29;20482;-82
2021/03/31 03:51:16;;;;;;;68.00;35.05;;;7.90;99.90;;;;;;4795761;29;20058;-84
2021/03/31 03:53:43;;;;;;;63.75;32.42;;;7.90;99.90;;;;;;4780474;29;20046;-83
2021/03/31 03:56:11;;;;;;;67.78;37.13;;;7.90;99.90;;;;;;4780952;29;20194;-82
2021/03/31 03:58:38;;;;;;;72.57;36.00;;;7.80;99.90;;;;;;4780557;29;20058;-82
2021/03/31 04:01:05;;;;;;;74.47;36.75;;;7.80;99.90;;;;;;4792526;29;20415;-82
2021/03/31 04:03:31;;;;;;;69.97;33.45;;;7.70;99.90;;;;;;4792468;29;20526;-82
2021/03/31 04:05:58;;;;;;;67.65;37.95;;;7.70;99.90;;;;;;4792277;29;20051;-83
2021/03/31 04:08:25;;;;;;;58.00;32.08;;;7.70;99.90;;;;;;4792606;29;20070;-82
2021/03/31 04:10:52;;;;;;;72.53;37.13;;;7.60;99.90;;;;;;4792369;29;20061;-82
2021/03/31 04:13:23;;;;;;;65.78;33.80;;;7.60;99.90;;;;;;4792150;29;20063;-82
2021/03/31 04:15:51;;;;;;;60.08;31.17;;;7.60;99.90;;;;;;4792557;29;20135;-82
2021/03/31 04:18:18;;;;;;;53.63;27.23;;;7.60;99.90;;;;;;4797651;29;20080;-82
2021/03/31 04:20:45;;;;;;;56.20;29.40;;;7.50;99.90;;;;;;4780658;29;20422;-82
2021/03/31 04:23:12;;;;;;;57.05;31.80;;;7.50;99.90;;;;;;4788843;29;20054;-80
2021/03/31 04:25:39;;;;;;;66.60;37.08;;;7.50;99.90;;;;;;4812064;29;20070;-83
2021/03/31 04:28:07;;;;;;;77.47;38.40;;;7.50;99.90;;;;;;4795310;29;20077;-83
2021/03/31 04:30:34;;;;;;;63.20;34.85;;;7.50;99.90;;;;;;4794823;29;20095;-84
2021/03/31 04:33:02;;;;;;;67.30;34.08;;;7.50;99.90;;;;;;4794438;29;20069;-84
2021/03/31 04:35:28;;;;;;;66.20;31.48;;;7.50;99.90;;;;;;4809766;29;20101;-83
2021/03/31 04:38:09;;;;;;;64.93;32.58;;;7.50;99.90;;;;;;4809781;29;20062;-83
2021/03/31 04:40:53;;;;;;;61.78;32.97;;;7.50;99.90;;;;;;4818998;29;20090;-83
2021/03/31 04:43:21;;;;;;;60.20;29.65;;;7.50;99.90;;;;;;4812899;29;20053;-83
2021/03/31 04:45:48;;;;;;;55.65;28.27;;;7.60;99.90;;;;;;4784917;29;20078;-83
2021/03/31 04:48:14;;;;;;;64.10;33.05;;;7.60;99.90;;;;;;4794676;29;20137;-83
2021/03/31 04:50:41;;;;;;;63.67;32.58;;;7.60;99.90;;;;;;4794601;29;20053;-83
2021/03/31 04:53:08;;;;;;;75.03;40.20;;;7.50;99.90;;;;;;4779895;29;20062;-83
2021/03/31 04:55:35;;;;;;;78.32;43.08;;;7.60;99.90;;;;;;4794111;29;20062;-83
2021/03/31 04:58:02;;;;;;;60.17;34.53;;;7.60;99.90;;;;;;4779760;29;20083;-85
2021/03/31 05:00:28;;;;;;;85.63;39.72;;;7.50;99.90;;;;;;4781106;29;20111;-83
2021/03/31 05:02:55;;;;;;;80.30;42.28;;;7.60;99.90;;;;;;4779557;29;20054;-82
2021/03/31 05:05:21;;;;;;;67.70;35.00;;;7.60;99.90;;;;;;4779666;29;20054;-82
2021/03/31 05:07:48;;;;;;;57.15;32.65;;;7.60;99.90;;;;;;4779786;29;20070;-83
2021/03/31 05:10:15;;;;;;;75.72;37.80;;;7.60;99.90;;;;;;4779309;29;20106;-83
2021/03/31 05:12:41;;;;;;;78.57;41.75;;;7.60;99.90;;;;;;4794408;29;20142;-83
2021/03/31 05:15:09;;;;;;;55.35;32.20;;;7.70;99.90;;;;;;4795540;29;20058;-83
2021/03/31 05:17:36;;;;;;;77.80;38.05;;;7.70;99.90;;;;;;4826942;29;20054;-83
2021/03/31 05:20:03;;;;;;;92.30;46.10;;;7.70;99.90;;;;;;4779696;29;20050;-82
2021/03/31 05:22:31;;;;;;;93.78;44.90;;;7.80;99.90;;;;;;4794473;29;20082;-83
2021/03/31 05:24:57;;;;;;;83.07;43.15;;;7.80;99.90;;;;;;4779647;29;20054;-83
2021/03/31 05:27:24;;;;;;;82.95;44.65;;;7.90;99.90;;;;;;4779424;29;20055;-83
2021/03/31 05:29:50;;;;;;;79.03;43.67;;;7.90;99.90;;;;;;4779277;29;20072;-83
2021/03/31 05:32:17;;;;;;;75.95;42.60;;;8.00;99.90;;;;;;4779488;29;20066;-83
2021/03/31 05:34:43;;;;;;;69.25;37.38;;;8.00;99.90;;;;;;4808527;29;20060;-84
2021/03/31 05:37:11;;;;;;;82.18;44.33;;;8.10;99.90;;;;;;4793975;29;20059;-83
2021/03/31 05:39:38;;;;;;;83.78;45.50;;;8.20;99.90;;;;;;4780689;29;20060;-84
2021/03/31 05:42:07;;;;;;;81.25;44.28;;;8.30;99.90;;;;;;4812124;29;20054;-83
2021/03/31 05:44:34;;;;;;;82.13;46.00;;;8.40;99.90;;;;;;4812136;29;20062;-83
2021/03/31 05:47:01;;;;;;;83.10;45.10;;;8.50;99.90;;;;;;4793685;29;20532;-83
2021/03/31 05:49:29;;;;;;;79.13;43.72;;;8.70;99.90;;;;;;4808500;29;20061;-83
2021/03/31 05:51:59;;;;;;;86.43;46.17;;;8.90;99.90;;;;;;4793659;29;20061;-84
2021/03/31 05:54:26;;;;;;;79.63;44.10;;;9.20;99.90;;;;;;4808454;29;20138;-84
2021/03/31 05:56:53;;;;;;;75.25;41.22;;;9.60;99.90;;;;;;4808847;29;20102;-83
2021/03/31 05:59:20;;;;;;;80.70;41.63;;;10.10;99.90;;;;;;4793772;29;20087;-83
2021/03/31 06:01:47;;;;;;;72.78;40.35;;;10.50;99.90;;;;;;4789230;29;20087;-84
2021/03/31 06:04:17;;;;;;;75.95;42.05;;;11.10;99.90;;;;;;4779178;29;20054;-84
2021/03/31 06:06:43;;;;;;;67.75;39.38;;;11.50;99.90;;;;;;4800038;29;20083;-84
2021/03/31 06:09:10;;;;;;;61.90;35.55;;;12.00;99.90;;;;;;4811289;29;20076;-84
2021/03/31 06:11:57;;;;;;;61.78;35.20;;;12.40;99.90;;;;;;4810045;29;20069;-86
2021/03/31 06:14:31;;;;;;;64.65;35.47;;;12.80;99.90;;;;;;4794009;29;20058;-84
2021/03/31 06:17:13;;;;;;;62.45;35.45;;;13.20;99.90;;;;;;4778938;29;20087;-84
2021/03/31 06:19:45;;;;;;;58.45;36.80;;;13.50;99.90;;;;;;4779677;29;20087;-84
2021/03/31 06:22:35;;;;;;;57.25;33.38;;;13.70;99.90;;;;;;4793976;29;20088;-84
2021/03/31 06:25:17;;;;;;;53.72;32.03;;;13.90;99.90;;;;;;4786673;29;20791;-84
2021/03/31 06:27:53;;;;;;;51.03;30.65;;;14.00;99.90;;;;;;4841661;29;20074;-85
2021/03/31 06:30:21;;;;;;;48.63;32.03;;;14.30;99.90;;;;;;4808948;29;20057;-85
2021/03/31 06:32:48;;;;;;;49.17;30.08;;;14.50;99.90;;;;;;4778147;29;20066;-87
2021/03/31 06:35:28;;;;;;;55.03;32.25;;;14.80;99.90;;;;;;4793263;29;20054;-84
2021/03/31 06:38:09;;;;;;;58.38;32.80;;;15.00;99.90;;;;;;4779506;29;20054;-83
2021/03/31 06:40:46;;;;;;;50.40;31.23;;;15.40;99.90;;;;;;4793988;29;20053;-83
2021/03/31 06:43:26;;;;;;;50.05;32.92;;;15.50;99.90;;;;;;4793629;29;20054;-84
2021/03/31 06:46:06;;;;;;;56.05;32.53;;;15.80;99.90;;;;;;4793000;29;20544;-83
2021/03/31 06:48:35;;;;;;;47.65;32.25;;;16.10;99.90;;;;;;4798261;29;20490;-84
2021/03/31 06:51:02;;;;;;;53.38;30.83;;;16.40;99.90;;;;;;4796951;29;20046;-83
2021/03/31 06:53:30;;;;;;;52.53;30.20;;;16.60;99.90;;;;;;4811700;29;20051;-85
2021/03/31 06:55:58;;;;;;;41.08;26.45;;;16.90;99.90;;;;;;4795252;29;20062;-83
2021/03/31 06:58:25;;;;;;;43.72;28.48;;;17.20;99.90;;;;;;4777199;29;20062;-86
2021/03/31 07:00:52;;;;;;;37.35;24.95;;;17.60;99.90;;;;;;4782761;29;20452;-85
2021/03/31 07:03:19;;;;;;;42.40;26.35;;;17.60;99.90;;;;;;4777995;29;20054;-85
2021/03/31 07:05:46;;;;;;;45.05;26.05;;;18.00;99.90;;;;;;4778274;29;20082;-85
2021/03/31 07:08:15;;;;;;;42.95;27.25;;;18.20;99.90;;;;;;4795199;29;20090;-86
2021/03/31 07:10:49;;;;;;;45.42;26.60;;;18.50;99.90;;;;;;4810872;29;20110;-85
2021/03/31 07:13:30;;;;;;;40.75;25.10;;;18.70;97.10;;;;;;4825024;29;20057;-84
2021/03/31 07:15:57;;;;;;;41.67;25.02;;;19.10;95.70;;;;;;4796117;29;20051;-84
2021/03/31 07:18:28;;;;;;;34.35;24.20;;;19.30;97.20;;;;;;4784492;29;20512;-85
2021/03/31 07:20:54;;;;;;;40.75;25.00;;;19.60;95.50;;;;;;4796544;29;20116;-87
2021/03/31 07:23:22;;;;;;;37.38;25.25;;;19.80;93.80;;;;;;4823653;29;20053;-87
2021/03/31 07:25:49;;;;;;;35.83;25.17;;;20.00;91.30;;;;;;4813566;29;20061;-88
2021/03/31 07:28:25;;;;;;;32.97;22.92;;;20.30;90.70;;;;;;4813374;29;20057;-87
2021/03/31 07:30:52;;;;;;;;;;;20.40;89.00;;;;;;4813579;29;20054;-87
2021/03/31 07:33:23;;;;;;;37.78;21.15;;;20.60;81.40;;;;;;4828457;29;19960;-86
2021/03/31 07:35:52;;;;;;;39.05;22.90;;;20.80;86.40;;;;;;4798955;29;20046;-87
2021/03/31 07:38:22;;;;;;;39.03;22.45;;;21.00;80.10;;;;;;4814274;29;20069;-86
2021/03/31 07:40:51;;;;;;;30.17;20.52;;;21.10;80.90;;;;;;4792953;29;20051;-86
2021/03/31 07:43:34;;;;;;;48.67;23.80;;;21.40;79.30;;;;;;4792389;29;20570;-87
2021/03/31 07:46:06;;;;;;;37.47;23.23;;;21.50;73.90;;;;;;4792322;29;20111;-86
2021/03/31 07:48:34;;;;;;;31.83;22.60;;;21.50;72.00;;;;;;4792293;29;20460;-86
2021/03/31 07:51:16;;;;;;;34.92;21.45;;;21.50;72.70;;;;;;4807618;29;20059;-85
2021/03/31 07:53:48;;;;;;;34.63;21.85;;;21.70;72.60;;;;;;4810767;29;20058;-86
2021/03/31 07:56:17;;;;;;;32.50;21.35;;;22.00;70.70;;;;;;4843220;29;20122;-86
2021/03/31 07:59:06;;;;;;;32.90;21.58;;;22.10;71.60;;;;;;4828095;29;20057;-86
2021/03/31 08:01:57;;;;;;;29.88;21.33;;;22.30;70.30;;;;;;4813633;29;20057;-86
2021/03/31 08:04:25;;;;;;;34.15;21.05;;;22.60;70.80;;;;;;4813122;29;20198;-86
2021/03/31 08:06:56;;;;;;;32.67;21.25;;;22.80;70.60;;;;;;4813492;29;20123;-86
2021/03/31 08:09:27;;;;;;;30.48;21.08;;;23.00;70.40;;;;;;4827782;29;20058;-86
2021/03/31 08:11:56;;;;;;;31.08;21.92;;;23.20;69.30;;;;;;4827771;29;20083;-86
2021/03/31 08:14:26;;;;;;;29.80;20.08;;;23.40;67.20;;;;;;4827973;29;20584;-88
2021/03/31 08:16:55;;;;;;;34.10;20.63;;;23.60;66.10;;;;;;4813626;29;20049;-86
2021/03/31 08:19:30;;;;;;;30.95;20.67;;;23.70;64.60;;;;;;4828184;29;20088;-86
2021/03/31 08:21:59;;;;;;;33.13;22.48;;;23.70;64.50;;;;;;4858469;29;20317;-86
2021/03/31 08:24:40;;;;;;;32.75;21.85;;;24.00;63.40;;;;;;4843625;29;20091;-87
2021/03/31 08:27:08;;;;;;;36.15;21.45;;;24.20;62.60;;;;;;4813444;29;20064;-86
2021/03/31 08:29:35;;;;;;;29.15;20.90;;;24.40;62.30;;;;;;4828165;29;20060;-89
2021/03/31 08:32:06;;;;;;;34.72;21.40;;;24.60;60.70;;;;;;4812526;29;20125;-86
2021/03/31 08:34:37;;;;;;;35.65;21.65;;;24.70;63.10;;;;;;4827518;29;20480;-87
2021/03/31 08:37:06;;;;;;;30.88;21.10;;;24.80;61.70;;;;;;4798848;29;20502;-88
2021/03/31 08:39:33;;;;;;;35.50;22.10;;;24.90;60.40;;;;;;4827431;29;20148;-87
2021/03/31 08:42:03;;;;;;;33.88;21.65;;;25.10;58.50;;;;;;4799060;29;20054;-88
2021/03/31 08:44:34;;;;;;;29.33;20.75;;;25.10;58.70;;;;;;4791169;29;20494;-88
2021/03/31 08:47:12;;;;;;;29.77;21.20;;;25.20;58.70;;;;;;4800188;29;20058;-87
2021/03/31 08:49:41;;;;;;;30.88;20.13;;;25.20;56.10;;;;;;4776687;29;20529;-88
2021/03/31 08:52:11;;;;;;;32.13;20.38;;;25.30;57.90;;;;;;4791094;29;20050;-87
2021/03/31 08:54:48;;;;;;;35.22;22.33;;;25.40;56.40;;;;;;4823931;29;20062;-89
2021/03/31 08:57:15;;;;;;;33.10;20.55;;;25.50;55.30;;;;;;4800073;29;20119;-89
2021/03/31 08:59:45;;;;;;;34.15;20.88;;;25.40;55.50;;;;;;4823231;29;20065;-86
2021/03/31 09:02:42;;;;;;;29.83;19.50;;;25.40;54.90;;;;;;4813214;29;20054;-88
2021/03/31 09:05:11;;;;;;;33.28;20.90;;;25.60;56.20;;;;;;4792829;29;20615;-90
2021/03/31 09:07:39;;;;;;;30.98;19.77;;;25.60;54.40;;;;;;4791693;29;20101;-89
2021/03/31 09:10:12;;;;;;;34.53;20.35;;;25.70;53.50;;;;;;4777518;29;20137;-89
2021/03/31 09:12:41;;;;;;;31.83;19.05;;;25.90;54.20;;;;;;4762973;29;20050;-91
2021/03/31 09:15:08;;;;;;;33.92;19.83;;;25.80;54.20;;;;;;4793709;29;20054;-87
2021/03/31 09:17:35;;;;;;;34.67;21.85;;;25.90;54.90;;;;;;4778482;29;20054;-87
2021/03/31 09:20:09;;;;;;;27.15;18.17;;;26.00;53.30;;;;;;4777797;29;20517;-88
2021/03/31 09:22:37;;;;;;;29.85;19.30;;;26.20;54.60;;;;;;4807869;29;20065;-88
2021/03/31 09:25:13;;;;;;;31.63;20.00;;;26.40;54.30;;;;;;4793198;29;20441;-87
2021/03/31 09:28:00;;;;;;;33.03;19.92;;;26.40;53.90;;;;;;4781077;29;20111;-89
2021/03/31 09:30:28;;;;;;;33.78;20.63;;;26.50;54.20;;;;;;4793208;29;20050;-88
2021/03/31 09:33:02;;;;;;;27.90;20.58;;;26.60;52.60;;;;;;4777914;29;20928;-89
2021/03/31 09:35:30;;;;;;;30.42;19.98;;;26.60;52.50;;;;;;4779912;29;20046;-89
2021/03/31 09:38:06;;;;;;;30.45;20.27;;;26.40;52.00;;;;;;4795128;29;20073;-88
2021/03/31 09:40:40;;;;;;;27.58;19.38;;;26.50;51.70;;;;;;4789996;29;20494;-88
2021/03/31 09:43:10;;;;;;;24.52;18.88;;;26.30;52.00;;;;;;4826574;29;20054;-90
2021/03/31 09:45:37;;;;;;;30.80;19.63;;;26.20;52.00;;;;;;4831249;29;20506;-89
2021/03/31 09:48:17;;;;;;;29.60;19.95;;;26.40;51.30;;;;;;5070719;28;20371;-88
2021/03/31 09:50:44;;;;;;;22.60;16.75;;;26.50;54.00;;;;;;5020485;28;20040;-88
2021/03/31 09:53:10;;;;;;;28.08;18.65;;;26.70;52.90;;;;;;5036676;28;20049;-89
2021/03/31 09:55:41;;;;;;;25.00;17.10;;;26.80;50.40;;;;;;5021336;28;20070;-88
2021/03/31 09:58:09;;;;;;;28.58;16.85;;;26.70;51.90;;;;;;5036524;28;20044;-88
2021/03/31 10:00:37;;;;;;;23.77;17.05;;;26.60;49.80;;;;;;5020511;28;20097;-88
2021/03/31 10:03:06;;;;;;;28.05;19.20;;;26.70;50.60;;;;;;5052678;28;20053;-88
2021/03/31 10:05:33;;;;;;;21.85;17.02;;;26.60;49.90;;;;;;5035819;28;20051;-87
2021/03/31 10:08:06;;;;;;;23.40;17.20;;;26.60;51.80;;;;;;5003530;28;20054;-87
2021/03/31 10:10:41;;;;;;;23.70;17.58;;;26.60;50.50;;;;;;5019951;28;20416;-87
2021/03/31 10:13:08;;;;;;;26.45;17.23;;;26.50;50.00;;;;;;5036836;28;20056;-88
2021/03/31 10:15:36;;;;;;;26.60;17.17;;;26.40;51.10;;;;;;5036076;28;20552;-88
2021/03/31 10:18:03;;;;;;;26.20;18.00;;;26.50;51.00;;;;;;5019921;28;20059;-86
2021/03/31 10:20:41;;;;;;;30.17;18.25;;;26.40;50.50;;;;;;5019426;28;20084;-87
2021/03/31 10:23:23;;;;;;;24.95;17.25;;;26.40;50.00;;;;;;5035744;28;20795;-86
2021/03/31 10:26:21;;;;;;;22.85;15.73;;;26.50;51.30;;;;;;5037489;28;20139;-90
2021/03/31 10:29:15;;;;;;;23.23;15.32;;;26.50;49.10;;;;;;5049519;28;20048;-85
2021/03/31 10:32:02;;;;;;;25.80;17.55;;;26.60;51.70;;;;;;5051852;28;20053;-87
2021/03/31 10:34:40;;;;;;;20.13;13.93;;;26.70;50.90;;;;;;5035938;28;20099;-89
2021/03/31 10:48:57;;;;;;;24.23;15.43;;;27.00;49.20;;;;;;5024927;28;20053;-86
2021/03/31 10:51:34;;;;;;;23.35;17.45;;;27.00;49.90;;;;;;5017333;28;20412;-86
2021/03/31 10:54:07;;;;;;;22.63;15.85;;;27.00;50.00;;;;;;5001558;28;20041;-86
2021/03/31 10:57:27;;;;;;;20.67;15.70;;;27.00;50.50;;;;;;5029077;28;20049;-86
2021/03/31 10:59:57;;;;;;;25.42;17.20;;;27.00;50.20;;;;;;4992836;28;20112;-85
2021/03/31 11:02:26;;;;;;;29.75;17.90;;;27.00;49.20;;;;;;4984361;28;20050;-84
2021/03/31 11:04:55;;;;;;;26.42;16.50;;;27.00;50.40;;;;;;4981042;28;20049;-86
2021/03/31 11:07:22;;;;;;;18.63;14.55;;;26.90;49.80;;;;;;4977483;28;20054;-86
2021/03/31 11:09:50;;;;;;;27.25;17.02;;;26.90;49.70;;;;;;4985568;28;20076;-84
2021/03/31 11:12:18;;;;;;;23.33;16.40;;;26.80;49.20;;;;;;4980884;28;20162;-85
2021/03/31 11:14:46;;;;;;;24.08;15.75;;;26.70;49.70;;;;;;4990905;28;20050;-85
2021/03/31 11:17:19;;;;;;;24.98;17.13;;;26.70;49.50;;;;;;4980435;28;20081;-87
2021/03/31 11:27:47;;;;;;;24.98;18.15;;;26.50;50.70;;;;;;5009483;28;20056;-86
2021/03/31 11:30:16;;;;;;;26.00;18.75;;;26.40;49.20;;;;;;4999579;28;20053;-85
2021/03/31 11:32:45;;;;;;;24.60;17.38;;;26.30;49.80;;;;;;5005414;28;20059;-86
2021/03/31 11:35:14;;;;;;;26.33;18.63;;;26.20;50.80;;;;;;5017312;28;20053;-85
2021/03/31 11:37:42;;;;;;;28.98;18.52;;;26.00;51.10;;;;;;5030912;28;20094;-88
2021/03/31 11:40:11;;;;;;;26.63;18.13;;;25.90;50.10;;;;;;5023142;28;20056;-87
2021/03/31 11:42:38;;;;;;;21.42;14.88;;;25.90;50.00;;;;;;5021000;28;20099;-85
2021/03/31 11:45:09;;;;;;;22.95;17.55;;;25.90;50.60;;;;;;5022560;28;20049;-85
2021/03/31 11:47:37;;;;;;;31.98;18.85;;;25.90;51.20;;;;;;5023693;28;20059;-84
2021/03/31 11:50:07;;;;;;;22.30;15.68;;;25.80;50.50;;;;;;5023227;28;20041;-85
2021/03/31 11:52:34;;;;;;;24.88;16.50;;;25.90;51.00;;;;;;5017664;28;20503;-84
2021/03/31 11:55:03;;;;;;;23.45;17.50;;;25.90;49.30;;;;;;5005466;28;20045;-85
2021/03/31 11:57:32;;;;;;;23.08;16.08;;;25.80;49.00;;;;;;5028488;28;20057;-85
2021/03/31 12:00:01;;;;;;;23.13;17.35;;;25.90;49.60;;;;;;5018156;28;20092;-85
2021/03/31 12:02:35;;;;;;;26.13;17.33;;;25.70;49.40;;;;;;5053658;28;20171;-84
2021/03/31 12:05:03;;;;;;;27.35;17.20;;;25.70;49.30;;;;;;5014393;28;20182;-84
2021/03/31 12:07:32;;;;;;;25.75;18.17;;;25.60;49.30;;;;;;5004085;28;20064;-84
2021/03/31 12:10:08;;;;;;;25.13;17.27;;;25.50;50.00;;;;;;5036211;28;20041;-84
2021/03/31 12:12:35;;;;;;;26.60;16.90;;;25.40;50.60;;;;;;5036354;28;20242;-85
2021/03/31 12:15:08;;;;;;;26.17;17.45;;;25.40;51.40;;;;;;5003743;28;20080;-84
2021/03/31 12:17:37;;;;;;;22.63;16.20;;;25.40;49.70;;;;;;4989538;28;20044;-85
2021/03/31 12:20:08;;;;;;;21.77;15.10;;;25.30;50.40;;;;;;5024958;28;20570;-84
2021/03/31 12:22:36;;;;;;;24.63;16.17;;;25.30;51.20;;;;;;5000811;28;20435;-84
2021/03/31 12:25:04;;;;;;;25.88;17.10;;;25.30;51.20;;;;;;5028521;28;20451;-84
2021/03/31 12:27:33;;;;;;;23.70;16.77;;;25.20;49.90;;;;;;4999981;28;20052;-83
2021/03/31 12:30:02;;;;;;;32.78;17.70;;;25.20;50.80;;;;;;5043150;28;20106;-83
2021/03/31 12:32:30;;;;;;;22.52;15.98;;;25.10;50.60;;;;;;5019016;28;20056;-85
2021/03/31 12:34:58;;;;;;;25.67;16.58;;;25.10;50.90;;;;;;5015959;28;20523;-84
2021/03/31 12:37:28;;;;;;;25.02;14.13;;;25.20;51.20;;;;;;5034362;28;20056;-85
2021/03/31 12:39:59;;;;;;;23.02;14.30;;;25.10;49.60;;;;;;5018643;28;20045;-84
2021/03/31 12:42:27;;;;;;;25.23;15.88;;;25.10;50.50;;;;;;5021920;28;20510;-85
2021/03/31 12:44:54;;;;;;;22.02;14.23;;;25.10;49.60;;;;;;5019450;28;20046;-85
2021/03/31 12:47:23;;;;;;;22.83;14.48;;;25.10;50.00;;;;;;5006231;28;20065;-84
2021/03/31 12:49:52;;;;;;;22.85;14.27;;;25.00;49.60;;;;;;5007174;28;20076;-83
2021/03/31 12:52:27;;;;;;;32.85;17.98;;;25.00;50.20;;;;;;5004577;28;20084;-84
2021/03/31 12:55:06;;;;;;;24.63;16.73;;;25.00;50.50;;;;;;5005271;28;20528;-86
2021/03/31 12:57:34;;;;;;;22.92;14.90;;;24.90;51.40;;;;;;5032195;28;20488;-86
2021/03/31 13:00:07;;;;;;;20.73;15.13;;;24.90;51.30;;;;;;5025911;28;20141;-85
2021/03/31 13:02:57;;;;;;;23.17;15.95;;;24.90;50.40;;;;;;5032519;28;20048;-85
2021/03/31 13:05:25;;;;;;;26.25;17.40;;;24.80;50.00;;;;;;5003737;28;20400;-86